Minot Air Force Base
KMIB : now visible

Airfield :











YOU CAN JOIN US ON...

 
LOGIN :

Register | Disclaimer

   EN    FR    IT 

 









Legend :    VFR   Marginal VFR   IFR   Intensive IFR   Very Intensive IFR
Visi :
Ceiling :
>= 8 km
>= 3000ft
5 to 8 km
1000 to 3000 ft
1500m to 5 km
500 to 1000 ft
800 to 1500m
200 to 500 ft
< 800m
< 200 ft
Symbols :   Thunderstorms  Fog  Heavy snow  Heavy precipitations  Wind > 20 kt






- Airport Elevation : 1667 ft


KMIB - Minot Air Force Base

CURRENT METAR :
  • 132359Z 34012KT 10SM CLR M15/M18 A3003 RMK AO2A SLP212 T11491184 $

EXPIRED METARs :
  • 132259Z 34011KT 10SM BKN050 M14/M18 A3002 RMK AO2A SLP209 60000 T11441179 11115 21144 52031 $

TAF AMD TAF KMIB
Valid from the 13 at 21:00 until the 14 at 23:00 UTC


132119Z 1321/1423 33010KT 9999 SCT010 BKN015 620204 QNH2990INS
BECMG 1410/1411 31006KT 9999 SCT030 BKN050 QNH3006INS TXM13/1321Z TNM25/1410Z LAST NO AMDS AFT 1323 NEXT 1609



MET'MAP, your aeronautical weather chart ! - Copyright ORBIFLY December 2007 - Disclaimer

ORBIFLY MET'MAP TEAM :

Programming & Development : Alexandra Zaïnal
Concept & original design : Baudouin d'Aumeries
Assistance for programming : Marc-Olivier Méhu
Technical & hardware support : Manuel Goepfert

Contact : metmap@orbifly.com




SOURCES & CREDITS :

   NOAA       Earth
Advisory